sensor_id;sensor_type;location;lat;lon;timestamp;pressure;altitude;pressure_sealevel;temperature;humidity
34374;BME280;20637;55.770;37.592;2023-05-10T00:01:37;100729.69;;;11.42;34.44
34374;BME280;20637;55.770;37.592;2023-05-10T00:04:03;100727.28;;;11.39;34.60
34374;BME280;20637;55.770;37.592;2023-05-10T00:06:29;100735.84;;;11.34;34.77
34374;BME280;20637;55.770;37.592;2023-05-10T00:08:55;100736.84;;;11.33;34.62
34374;BME280;20637;55.770;37.592;2023-05-10T00:11:20;100730.72;;;11.31;34.82
34374;BME280;20637;55.770;37.592;2023-05-10T00:13:45;100729.88;;;11.31;34.79
34374;BME280;20637;55.770;37.592;2023-05-10T00:16:11;100724.59;;;11.29;34.91
34374;BME280;20637;55.770;37.592;2023-05-10T00:18:38;100720.91;;;11.30;34.71
34374;BME280;20637;55.770;37.592;2023-05-10T00:21:04;100720.19;;;11.28;34.86
34374;BME280;20637;55.770;37.592;2023-05-10T00:23:29;100724.75;;;11.28;34.83
34374;BME280;20637;55.770;37.592;2023-05-10T00:25:55;100719.63;;;11.25;35.00
34374;BME280;20637;55.770;37.592;2023-05-10T00:28:21;100726.19;;;11.22;34.98
34374;BME280;20637;55.770;37.592;2023-05-10T00:30:46;100727.47;;;11.18;34.94
34374;BME280;20637;55.770;37.592;2023-05-10T00:33:11;100723.91;;;11.18;34.76
34374;BME280;20637;55.770;37.592;2023-05-10T00:35:37;100733.75;;;11.19;34.88
34374;BME280;20637;55.770;37.592;2023-05-10T00:38:03;100726.63;;;11.18;34.89
34374;BME280;20637;55.770;37.592;2023-05-10T00:40:29;100725.78;;;11.17;35.07
34374;BME280;20637;55.770;37.592;2023-05-10T00:42:59;100726.75;;;11.16;35.26
34374;BME280;20637;55.770;37.592;2023-05-10T00:45:25;100724.91;;;11.17;35.05
34374;BME280;20637;55.770;37.592;2023-05-10T00:47:51;100729.31;;;11.18;35.00
34374;BME280;20637;55.770;37.592;2023-05-10T00:50:20;100732.88;;;11.18;34.73
34374;BME280;20637;55.770;37.592;2023-05-10T00:52:46;100730.06;;;11.20;34.96
34374;BME280;20637;55.770;37.592;2023-05-10T00:55:11;100735.47;;;11.20;35.01
34374;BME280;20637;55.770;37.592;2023-05-10T00:57:38;100734.72;;;11.18;35.16
34374;BME280;20637;55.770;37.592;2023-05-10T01:00:03;100734.19;;;11.14;34.94
34374;BME280;20637;55.770;37.592;2023-05-10T01:02:29;100738.72;;;11.14;34.93
34374;BME280;20637;55.770;37.592;2023-05-10T01:04:55;100728.22;;;11.11;35.24
34374;BME280;20637;55.770;37.592;2023-05-10T01:07:22;100721.94;;;11.10;35.19
34374;BME280;20637;55.770;37.592;2023-05-10T01:09:48;100728.22;;;11.11;35.05
34374;BME280;20637;55.770;37.592;2023-05-10T01:12:14;100724.78;;;11.09;35.21
34374;BME280;20637;55.770;37.592;2023-05-10T01:14:40;100724.09;;;11.07;35.21
34374;BME280;20637;55.770;37.592;2023-05-10T01:17:06;100732.31;;;11.05;35.06
34374;BME280;20637;55.770;37.592;2023-05-10T01:19:32;100728.06;;;11.03;35.51
34374;BME280;20637;55.770;37.592;2023-05-10T01:22:50;100727.34;;;11.00;35.30
34374;BME280;20637;55.770;37.592;2023-05-10T01:34:56;100726.78;;;10.97;35.54
34374;BME280;20637;55.770;37.592;2023-05-10T01:37:27;100723.69;;;10.92;35.37
34374;BME280;20637;55.770;37.592;2023-05-10T01:40:02;100725.66;;;10.90;35.62
34374;BME280;20637;55.770;37.592;2023-05-10T01:42:32;100722.28;;;10.88;35.69
34374;BME280;20637;55.770;37.592;2023-05-10T01:45:24;100727.81;;;10.86;35.56
34374;BME280;20637;55.770;37.592;2023-05-10T01:47:50;100720.97;;;10.82;35.98
34374;BME280;20637;55.770;37.592;2023-05-10T01:50:22;100732.78;;;10.81;35.66
34374;BME280;20637;55.770;37.592;2023-05-10T01:52:51;100718.44;;;10.81;36.06
34374;BME280;20637;55.770;37.592;2023-05-10T01:55:18;100717.59;;;10.80;36.00
34374;BME280;20637;55.770;37.592;2023-05-10T01:57:46;100720.44;;;10.79;35.93
34374;BME280;20637;55.770;37.592;2023-05-10T02:00:13;100721.28;;;10.79;35.82
34374;BME280;20637;55.770;37.592;2023-05-10T02:02:40;100721.56;;;10.76;35.93
34374;BME280;20637;55.770;37.592;2023-05-10T02:05:07;100721.88;;;10.73;36.10
34374;BME280;20637;55.770;37.592;2023-05-10T02:07:36;100707.50;;;10.73;35.93
34374;BME280;20637;55.770;37.592;2023-05-10T02:10:02;100716.59;;;10.72;35.80
34374;BME280;20637;55.770;37.592;2023-05-10T02:12:29;100717.44;;;10.72;36.13
34374;BME280;20637;55.770;37.592;2023-05-10T02:14:56;100719.16;;;10.73;36.20
34374;BME280;20637;55.770;37.592;2023-05-10T02:17:23;100711.88;;;10.74;36.14
34374;BME280;20637;55.770;37.592;2023-05-10T02:19:49;100718.16;;;10.74;35.94
34374;BME280;20637;55.770;37.592;2023-05-10T02:22:17;100721.69;;;10.75;35.96
34374;BME280;20637;55.770;37.592;2023-05-10T02:24:44;100721.56;;;10.76;36.16
34374;BME280;20637;55.770;37.592;2023-05-10T02:27:10;100709.19;;;10.74;36.12
34374;BME280;20637;55.770;37.592;2023-05-10T02:29:37;100700.38;;;10.72;35.91
34374;BME280;20637;55.770;37.592;2023-05-10T02:32:03;100713.75;;;10.73;36.18
34374;BME280;20637;55.770;37.592;2023-05-10T02:34:29;100704.94;;;10.71;36.19
34374;BME280;20637;55.770;37.592;2023-05-10T02:36:55;100712.06;;;10.72;36.15
34374;BME280;20637;55.770;37.592;2023-05-10T02:39:21;100702.38;;;10.70;35.96
34374;BME280;20637;55.770;37.592;2023-05-10T02:41:48;100699.81;;;10.68;36.25
34374;BME280;20637;55.770;37.592;2023-05-10T02:44:14;100707.94;;;10.68;36.19
34374;BME280;20637;55.770;37.592;2023-05-10T02:46:40;100703.50;;;10.67;35.65
34374;BME280;20637;55.770;37.592;2023-05-10T02:49:05;100702.53;;;10.68;36.01
34374;BME280;20637;55.770;37.592;2023-05-10T02:51:32;100702.81;;;10.65;36.00
34374;BME280;20637;55.770;37.592;2023-05-10T02:54:01;100703.69;;;10.66;36.02
34374;BME280;20637;55.770;37.592;2023-05-10T02:56:30;100702.53;;;10.68;36.39
34374;BME280;20637;55.770;37.592;2023-05-10T02:58:57;100697.97;;;10.69;35.88
34374;BME280;20637;55.770;37.592;2023-05-10T03:01:22;100700.69;;;10.69;36.46
34374;BME280;20637;55.770;37.592;2023-05-10T03:03:48;100701.25;;;10.72;36.23
34374;BME280;20637;55.770;37.592;2023-05-10T03:06:14;100697.69;;;10.72;36.47
34374;BME280;20637;55.770;37.592;2023-05-10T03:08:41;100695.00;;;10.72;36.46
34374;BME280;20637;55.770;37.592;2023-05-10T03:16:29;100694.13;;;10.71;36.51
34374;BME280;20637;55.770;37.592;2023-05-10T03:18:56;100692.59;;;10.69;36.63
34374;BME280;20637;55.770;37.592;2023-05-10T03:21:28;100690.00;;;10.67;36.52
34374;BME280;20637;55.770;37.592;2023-05-10T03:24:12;100692.41;;;10.70;36.26
34374;BME280;20637;55.770;37.592;2023-05-10T03:26:41;100695.84;;;10.72;36.57
34374;BME280;20637;55.770;37.592;2023-05-10T03:29:13;100686.75;;;10.73;36.51
34374;BME280;20637;55.770;37.592;2023-05-10T03:31:40;100695.56;;;10.75;36.50
34374;BME280;20637;55.770;37.592;2023-05-10T03:34:05;100694.13;;;10.81;36.50
34374;BME280;20637;55.770;37.592;2023-05-10T03:36:32;100689.13;;;10.86;36.66
34374;BME280;20637;55.770;37.592;2023-05-10T03:38:58;100693.56;;;10.87;36.41
34374;BME280;20637;55.770;37.592;2023-05-10T03:41:24;100692.69;;;10.86;36.54
34374;BME280;20637;55.770;37.592;2023-05-10T03:43:50;100687.72;;;10.91;36.34
34374;BME280;20637;55.770;37.592;2023-05-10T03:46:16;100690.13;;;10.94;36.59
34374;BME280;20637;55.770;37.592;2023-05-10T03:48:42;100690.69;;;10.98;36.45
34374;BME280;20637;55.770;37.592;2023-05-10T03:51:07;100693.09;;;11.01;36.80
34374;BME280;20637;55.770;37.592;2023-05-10T03:53:33;100692.09;;;11.02;36.33
34374;BME280;20637;55.770;37.592;2023-05-10T03:55:59;100700.94;;;11.04;36.58
34374;BME280;20637;55.770;37.592;2023-05-10T03:58:24;100688.97;;;11.07;36.38
34374;BME280;20637;55.770;37.592;2023-05-10T04:00:50;100691.81;;;11.05;36.36
34374;BME280;20637;55.770;37.592;2023-05-10T04:03:16;100688.97;;;11.07;36.59
34374;BME280;20637;55.770;37.592;2023-05-10T04:05:42;100690.22;;;11.12;36.36
34374;BME280;20637;55.770;37.592;2023-05-10T04:08:07;100682.41;;;11.19;36.56
34374;BME280;20637;55.770;37.592;2023-05-10T04:10:33;100684.38;;;11.17;36.33
34374;BME280;20637;55.770;37.592;2023-05-10T04:12:58;100694.06;;;11.19;36.31
34374;BME280;20637;55.770;37.592;2023-05-10T04:15:24;100685.78;;;11.21;36.41
34374;BME280;20637;55.770;37.592;2023-05-10T04:17:49;100682.66;;;11.25;36.65
34374;BME280;20637;55.770;37.592;2023-05-10T04:20:15;100685.06;;;11.28;36.48
34374;BME280;20637;55.770;37.592;2023-05-10T04:22:40;100679.06;;;11.34;36.57
34374;BME280;20637;55.770;37.592;2023-05-10T04:25:06;100680.31;;;11.40;36.45
34374;BME280;20637;55.770;37.592;2023-05-10T04:27:32;100678.72;;;11.47;36.44
34374;BME280;20637;55.770;37.592;2023-05-10T04:29:57;100679.13;;;11.52;36.16
34374;BME280;20637;55.770;37.592;2023-05-10T04:32:23;100685.94;;;11.56;36.18
34374;BME280;20637;55.770;37.592;2023-05-10T04:34:48;100674.69;;;11.61;36.24
34374;BME280;20637;55.770;37.592;2023-05-10T04:37:14;100673.09;;;11.68;36.21
34374;BME280;20637;55.770;37.592;2023-05-10T04:39:39;100677.31;;;11.70;35.77
34374;BME280;20637;55.770;37.592;2023-05-10T04:42:05;100681.47;;;11.74;36.49
34374;BME280;20637;55.770;37.592;2023-05-10T04:44:33;100676.16;;;11.82;36.06
34374;BME280;20637;55.770;37.592;2023-05-10T04:46:59;100672.69;;;11.90;35.63
34374;BME280;20637;55.770;37.592;2023-05-10T04:49:25;100662.41;;;11.93;35.90
34374;BME280;20637;55.770;37.592;2023-05-10T04:51:50;100666.25;;;12.01;35.96
34374;BME280;20637;55.770;37.592;2023-05-10T04:54:16;100665.63;;;12.07;35.50
34374;BME280;20637;55.770;37.592;2023-05-10T04:56:41;100664.19;;;12.12;35.44
34374;BME280;20637;55.770;37.592;2023-05-10T04:59:07;100666.94;;;12.20;35.76
34374;BME280;20637;55.770;37.592;2023-05-10T05:01:32;100667.88;;;12.29;35.80
34374;BME280;20637;55.770;37.592;2023-05-10T05:03:58;100664.56;;;12.35;35.39
34374;BME280;20637;55.770;37.592;2023-05-10T05:06:24;100664.78;;;12.41;35.74
34374;BME280;20637;55.770;37.592;2023-05-10T05:08:50;100655.75;;;12.51;35.28
34374;BME280;20637;55.770;37.592;2023-05-10T05:11:16;100657.50;;;12.60;35.14
34374;BME280;20637;55.770;37.592;2023-05-10T05:13:41;100655.03;;;12.66;35.41
34374;BME280;20637;55.770;37.592;2023-05-10T05:16:07;100658.97;;;12.72;34.80
34374;BME280;20637;55.770;37.592;2023-05-10T05:18:32;100659.88;;;12.80;34.83
34374;BME280;20637;55.770;37.592;2023-05-10T05:20:57;100652.81;;;12.87;34.48
34374;BME280;20637;55.770;37.592;2023-05-10T05:23:23;100654.19;;;12.92;34.72
34374;BME280;20637;55.770;37.592;2023-05-10T05:25:52;100654.72;;;12.95;34.54
34374;BME280;20637;55.770;37.592;2023-05-10T05:28:19;100647.59;;;12.94;34.31
34374;BME280;20637;55.770;37.592;2023-05-10T05:30:44;100645.81;;;13.03;34.34
34374;BME280;20637;55.770;37.592;2023-05-10T05:33:10;100645.75;;;13.12;34.15
34374;BME280;20637;55.770;37.592;2023-05-10T05:35:35;100642.38;;;13.18;33.72
34374;BME280;20637;55.770;37.592;2023-05-10T05:38:01;100642.22;;;13.20;33.88
34374;BME280;20637;55.770;37.592;2023-05-10T05:40:26;100641.91;;;13.23;33.95
34374;BME280;20637;55.770;37.592;2023-05-10T05:42:52;100632.81;;;13.32;34.02
34374;BME280;20637;55.770;37.592;2023-05-10T05:45:17;100636.63;;;13.47;33.60
34374;BME280;20637;55.770;37.592;2023-05-10T05:47:43;100637.66;;;13.54;34.03
34374;BME280;20637;55.770;37.592;2023-05-10T05:50:08;100628.84;;;13.60;33.86
34374;BME280;20637;55.770;37.592;2023-05-10T05:52:34;100630.22;;;13.64;33.73
34374;BME280;20637;55.770;37.592;2023-05-10T05:54:59;100630.41;;;13.71;33.92
34374;BME280;20637;55.770;37.592;2023-05-10T05:57:25;100632.84;;;13.82;33.69
34374;BME280;20637;55.770;37.592;2023-05-10T05:59:51;100626.22;;;13.84;33.47
34374;BME280;20637;55.770;37.592;2023-05-10T06:02:17;100631.16;;;13.89;33.77
34374;BME280;20637;55.770;37.592;2023-05-10T06:04:42;100630.34;;;13.97;33.87
34374;BME280;20637;55.770;37.592;2023-05-10T06:07:08;100627.94;;;14.02;33.62
34374;BME280;20637;55.770;37.592;2023-05-10T06:09:33;100632.22;;;14.04;33.24
34374;BME280;20637;55.770;37.592;2023-05-10T06:11:59;100627.31;;;14.08;33.04
34374;BME280;20637;55.770;37.592;2023-05-10T06:14:24;100627.47;;;14.06;33.32
34374;BME280;20637;55.770;37.592;2023-05-10T06:16:50;100631.03;;;14.07;33.43
34374;BME280;20637;55.770;37.592;2023-05-10T06:19:15;100620.53;;;14.12;33.67
34374;BME280;20637;55.770;37.592;2023-05-10T06:21:40;100624.28;;;14.19;33.23
34374;BME280;20637;55.770;37.592;2023-05-10T06:24:06;100615.47;;;14.17;33.22
34374;BME280;20637;55.770;37.592;2023-05-10T06:26:32;100624.59;;;14.16;33.17
34374;BME280;20637;55.770;37.592;2023-05-10T06:28:57;100618.50;;;14.22;32.96
34374;BME280;20637;55.770;37.592;2023-05-10T06:31:23;100618.50;;;14.30;32.99
34374;BME280;20637;55.770;37.592;2023-05-10T06:33:48;100615.84;;;14.38;33.10
34374;BME280;20637;55.770;37.592;2023-05-10T06:36:13;100609.91;;;14.43;32.72
34374;BME280;20637;55.770;37.592;2023-05-10T06:38:39;100614.31;;;14.36;32.35
34374;BME280;20637;55.770;37.592;2023-05-10T06:41:05;100609.50;;;14.29;32.41
34374;BME280;20637;55.770;37.592;2023-05-10T06:43:30;100605.28;;;14.27;32.39
34374;BME280;20637;55.770;37.592;2023-05-10T06:45:56;100605.94;;;14.29;32.74
34374;BME280;20637;55.770;37.592;2023-05-10T06:48:21;100602.25;;;14.38;32.62
34374;BME280;20637;55.770;37.592;2023-05-10T06:50:47;100600.56;;;14.45;32.40
34374;BME280;20637;55.770;37.592;2023-05-10T06:53:12;100604.47;;;14.51;31.67
34374;BME280;20637;55.770;37.592;2023-05-10T06:55:38;100600.56;;;14.53;32.00
34374;BME280;20637;55.770;37.592;2023-05-10T06:58:04;100597.19;;;14.51;31.81
34374;BME280;20637;55.770;37.592;2023-05-10T07:00:29;100601.91;;;14.57;31.21
34374;BME280;20637;55.770;37.592;2023-05-10T07:02:55;100596.13;;;14.60;31.36
34374;BME280;20637;55.770;37.592;2023-05-10T07:05:21;100593.41;;;14.60;31.55
34374;BME280;20637;55.770;37.592;2023-05-10T07:07:46;100595.28;;;14.60;30.90
34374;BME280;20637;55.770;37.592;2023-05-10T07:10:11;100587.66;;;14.63;30.80
34374;BME280;20637;55.770;37.592;2023-05-10T07:12:37;100597.31;;;14.66;30.86
34374;BME280;20637;55.770;37.592;2023-05-10T07:15:03;100593.41;;;14.68;31.01
34374;BME280;20637;55.770;37.592;2023-05-10T07:17:29;100594.25;;;14.77;31.15
34374;BME280;20637;55.770;37.592;2023-05-10T07:19:55;100592.38;;;14.94;31.14
34374;BME280;20637;55.770;37.592;2023-05-10T07:22:20;100593.34;;;15.09;30.44
34374;BME280;20637;55.770;37.592;2023-05-10T07:24:46;100589.75;;;15.16;30.60
34374;BME280;20637;55.770;37.592;2023-05-10T07:27:11;100590.06;;;15.21;30.24
34374;BME280;20637;55.770;37.592;2023-05-10T07:29:38;100583.09;;;15.27;30.45
34374;BME280;20637;55.770;37.592;2023-05-10T07:32:03;100587.66;;;15.26;30.30
34374;BME280;20637;55.770;37.592;2023-05-10T07:34:29;100576.28;;;15.31;30.65
34374;BME280;20637;55.770;37.592;2023-05-10T07:36:57;100585.41;;;15.38;30.37
34374;BME280;20637;55.770;37.592;2023-05-10T07:39:22;100575.53;;;15.45;30.20
34374;BME280;20637;55.770;37.592;2023-05-10T07:41:48;100579.63;;;15.49;30.03
34374;BME280;20637;55.770;37.592;2023-05-10T07:44:13;100577.59;;;15.51;29.81
34374;BME280;20637;55.770;37.592;2023-05-10T07:46:39;100567.84;;;15.57;30.13
34374;BME280;20637;55.770;37.592;2023-05-10T07:49:04;100577.84;;;15.64;29.53
34374;BME280;20637;55.770;37.592;2023-05-10T07:51:30;100575.31;;;15.63;29.65
34374;BME280;20637;55.770;37.592;2023-05-10T07:53:55;100576.47;;;15.68;29.75
34374;BME280;20637;55.770;37.592;2023-05-10T07:56:31;100577.81;;;15.72;29.68
34374;BME280;20637;55.770;37.592;2023-05-10T07:59:00;100575.81;;;15.66;29.48
34374;BME280;20637;55.770;37.592;2023-05-10T08:01:26;100565.56;;;15.68;29.83
34374;BME280;20637;55.770;37.592;2023-05-10T08:03:52;100570.44;;;15.81;29.46
34374;BME280;20637;55.770;37.592;2023-05-10T08:06:19;100567.66;;;15.89;29.42
34374;BME280;20637;55.770;37.592;2023-05-10T08:08:47;100566.16;;;15.87;29.28
34374;BME280;20637;55.770;37.592;2023-05-10T08:11:18;100559.38;;;15.83;29.20
34374;BME280;20637;55.770;37.592;2023-05-10T08:13:44;100552.56;;;15.87;29.94
34374;BME280;20637;55.770;37.592;2023-05-10T08:16:10;100557.69;;;16.04;29.68
34374;BME280;20637;55.770;37.592;2023-05-10T08:18:35;100544.66;;;16.14;29.61
34374;BME280;20637;55.770;37.592;2023-05-10T08:21:01;100547.72;;;16.19;29.39
34374;BME280;20637;55.770;37.592;2023-05-10T08:23:26;100538.88;;;16.17;29.40
34374;BME280;20637;55.770;37.592;2023-05-10T08:25:52;100536.56;;;16.06;29.37
34374;BME280;20637;55.770;37.592;2023-05-10T08:28:17;100545.09;;;16.03;29.31
34374;BME280;20637;55.770;37.592;2023-05-10T08:30:42;100533.06;;;15.98;29.28
34374;BME280;20637;55.770;37.592;2023-05-10T08:33:08;100537.66;;;15.97;29.40
34374;BME280;20637;55.770;37.592;2023-05-10T08:35:33;100533.34;;;16.03;29.26
34374;BME280;20637;55.770;37.592;2023-05-10T08:38:00;100528.75;;;16.03;29.18
34374;BME280;20637;55.770;37.592;2023-05-10T08:40:26;100531.84;;;16.00;29.51
34374;BME280;20637;55.770;37.592;2023-05-10T08:42:55;100529.66;;;15.96;29.68
34374;BME280;20637;55.770;37.592;2023-05-10T08:45:22;100519.56;;;16.04;29.61
34374;BME280;20637;55.770;37.592;2023-05-10T08:47:48;100529.59;;;16.27;29.37
34374;BME280;20637;55.770;37.592;2023-05-10T08:50:14;100522.91;;;16.52;28.91
34374;BME280;20637;55.770;37.592;2023-05-10T08:52:40;100530.28;;;16.66;28.42
34374;BME280;20637;55.770;37.592;2023-05-10T08:55:06;100523.81;;;16.67;28.54
34374;BME280;20637;55.770;37.592;2023-05-10T08:57:32;100523.06;;;16.73;28.57
34374;BME280;20637;55.770;37.592;2023-05-10T08:59:57;100529.53;;;16.72;28.41
34374;BME280;20637;55.770;37.592;2023-05-10T09:02:24;100515.44;;;16.68;28.78
34374;BME280;20637;55.770;37.592;2023-05-10T09:04:50;100517.97;;;16.70;28.31
34374;BME280;20637;55.770;37.592;2023-05-10T09:07:15;100513.69;;;16.76;27.92
34374;BME280;20637;55.770;37.592;2023-05-10T09:09:41;100523.53;;;16.77;27.50
34374;BME280;20637;55.770;37.592;2023-05-10T09:12:07;100507.53;;;16.74;27.72
34374;BME280;20637;55.770;37.592;2023-05-10T09:14:36;100502.66;;;16.84;27.71
34374;BME280;20637;55.770;37.592;2023-05-10T09:17:02;100496.38;;;16.83;27.61
34374;BME280;20637;55.770;37.592;2023-05-10T09:19:28;100501.72;;;16.77;27.85
34374;BME280;20637;55.770;37.592;2023-05-10T09:21:53;100502.19;;;16.80;27.48
34374;BME280;20637;55.770;37.592;2023-05-10T09:24:19;100500.59;;;16.86;27.29
34374;BME280;20637;55.770;37.592;2023-05-10T09:26:48;100498.44;;;16.81;26.81
34374;BME280;20637;55.770;37.592;2023-05-10T09:29:13;100493.91;;;16.74;27.01
34374;BME280;20637;55.770;37.592;2023-05-10T09:31:43;100488.38;;;16.82;27.69
34374;BME280;20637;55.770;37.592;2023-05-10T09:34:10;100481.22;;;17.10;26.80
34374;BME280;20637;55.770;37.592;2023-05-10T09:36:35;100477.59;;;17.39;26.58
34374;BME280;20637;55.770;37.592;2023-05-10T09:39:00;100475.41;;;17.64;25.97
34374;BME280;20637;55.770;37.592;2023-05-10T09:41:27;100470.25;;;17.75;26.53
34374;BME280;20637;55.770;37.592;2023-05-10T09:43:55;100465.75;;;17.89;26.41
34374;BME280;20637;55.770;37.592;2023-05-10T09:46:21;100460.44;;;17.81;26.51
34374;BME280;20637;55.770;37.592;2023-05-10T09:48:47;100467.53;;;17.75;26.58
34374;BME280;20637;55.770;37.592;2023-05-10T09:51:20;100462.31;;;17.80;26.92
34374;BME280;20637;55.770;37.592;2023-05-10T09:53:46;100457.69;;;17.81;27.24
34374;BME280;20637;55.770;37.592;2023-05-10T09:56:11;100458.78;;;17.80;27.42
34374;BME280;20637;55.770;37.592;2023-05-10T09:58:37;100462.00;;;17.90;27.36
34374;BME280;20637;55.770;37.592;2023-05-10T10:01:09;100452.44;;;18.00;27.11
34374;BME280;20637;55.770;37.592;2023-05-10T10:03:40;100453.81;;;18.11;27.40
34374;BME280;20637;55.770;37.592;2023-05-10T10:06:07;100449.00;;;18.41;26.84
34374;BME280;20637;55.770;37.592;2023-05-10T10:08:33;100445.63;;;18.67;26.67
34374;BME280;20637;55.770;37.592;2023-05-10T10:10:58;100436.28;;;18.89;26.41
34374;BME280;20637;55.770;37.592;2023-05-10T10:13:24;100438.41;;;18.93;26.66
34374;BME280;20637;55.770;37.592;2023-05-10T10:15:50;100437.88;;;18.77;26.29
34374;BME280;20637;55.770;37.592;2023-05-10T10:18:17;100434.94;;;18.50;26.55
34374;BME280;20637;55.770;37.592;2023-05-10T10:20:42;100437.16;;;18.34;27.14
34374;BME280;20637;55.770;37.592;2023-05-10T10:23:08;100423.09;;;18.37;27.22
34374;BME280;20637;55.770;37.592;2023-05-10T10:25:33;100427.81;;;18.49;27.09
34374;BME280;20637;55.770;37.592;2023-05-10T10:28:03;100430.34;;;18.51;26.14
34374;BME280;20637;55.770;37.592;2023-05-10T10:33:13;100431.25;;;18.30;27.03
34374;BME280;20637;55.770;37.592;2023-05-10T10:35:43;100421.16;;;18.31;27.23
34374;BME280;20637;55.770;37.592;2023-05-10T10:38:10;100431.25;;;18.30;27.18
34374;BME280;20637;55.770;37.592;2023-05-10T10:40:37;100423.13;;;18.16;26.29
34374;BME280;20637;55.770;37.592;2023-05-10T10:48:31;100421.84;;;17.84;26.96
34374;BME280;20637;55.770;37.592;2023-05-10T10:50:56;100415.84;;;17.95;27.05
34374;BME280;20637;55.770;37.592;2023-05-10T10:53:25;100410.16;;;17.96;26.69
34374;BME280;20637;55.770;37.592;2023-05-10T10:55:53;100407.56;;;17.88;26.29
34374;BME280;20637;55.770;37.592;2023-05-10T10:58:30;100405.38;;;17.77;26.43
34374;BME280;20637;55.770;37.592;2023-05-10T11:01:17;100407.69;;;17.80;26.49
34374;BME280;20637;55.770;37.592;2023-05-10T11:06:30;100415.31;;;17.85;26.69
34374;BME280;20637;55.770;37.592;2023-05-10T11:09:09;100395.28;;;17.78;26.40
34374;BME280;20637;55.770;37.592;2023-05-10T11:11:35;100400.47;;;17.73;26.59
34374;BME280;20637;55.770;37.592;2023-05-10T11:14:04;100395.81;;;17.67;26.32
34374;BME280;20637;55.770;37.592;2023-05-10T11:16:40;100393.03;;;17.60;26.38
34374;BME280;20637;55.770;37.592;2023-05-10T11:19:10;100394.97;;;17.66;26.44
34374;BME280;20637;55.770;37.592;2023-05-10T11:24:18;100399.66;;;17.72;26.68
34374;BME280;20637;55.770;37.592;2023-05-10T11:26:44;100385.34;;;17.70;26.52
34374;BME280;20637;55.770;37.592;2023-05-10T11:29:10;100382.56;;;17.64;27.02
34374;BME280;20637;55.770;37.592;2023-05-10T11:31:41;100385.53;;;17.69;26.85
34374;BME280;20637;55.770;37.592;2023-05-10T11:34:07;100386.00;;;17.72;26.85
34374;BME280;20637;55.770;37.592;2023-05-10T11:36:33;100378.19;;;17.69;26.85
34374;BME280;20637;55.770;37.592;2023-05-10T11:38:59;100383.41;;;17.64;26.84
34374;BME280;20637;55.770;37.592;2023-05-10T11:41:26;100371.44;;;17.65;26.97
34374;BME280;20637;55.770;37.592;2023-05-10T11:43:52;100378.41;;;17.68;26.99
34374;BME280;20637;55.770;37.592;2023-05-10T11:46:19;100368.13;;;17.70;27.23
34374;BME280;20637;55.770;37.592;2023-05-10T11:48:45;100363.56;;;17.77;27.03
34374;BME280;20637;55.770;37.592;2023-05-10T11:51:11;100362.13;;;17.81;27.18
34374;BME280;20637;55.770;37.592;2023-05-10T11:53:37;100368.03;;;17.84;27.41
34374;BME280;20637;55.770;37.592;2023-05-10T11:56:07;100365.13;;;17.86;27.19
34374;BME280;20637;55.770;37.592;2023-05-10T11:58:33;100364.09;;;17.87;27.31
34374;BME280;20637;55.770;37.592;2023-05-10T12:00:59;100360.69;;;17.85;26.94
34374;BME280;20637;55.770;37.592;2023-05-10T12:03:25;100362.78;;;17.83;27.22
34374;BME280;20637;55.770;37.592;2023-05-10T12:05:51;100361.53;;;17.85;26.99
34374;BME280;20637;55.770;37.592;2023-05-10T12:08:20;100353.78;;;17.89;27.26
34374;BME280;20637;55.770;37.592;2023-05-10T12:10:46;100347.69;;;17.87;27.32
34374;BME280;20637;55.770;37.592;2023-05-10T12:13:12;100344.06;;;17.80;27.30
34374;BME280;20637;55.770;37.592;2023-05-10T12:15:39;100351.34;;;17.73;26.84
34374;BME280;20637;55.770;37.592;2023-05-10T12:18:04;100344.22;;;17.72;27.37
34374;BME280;20637;55.770;37.592;2023-05-10T12:20:30;100342.78;;;17.76;27.27
34374;BME280;20637;55.770;37.592;2023-05-10T12:22:57;100351.41;;;17.79;27.07
34374;BME280;20637;55.770;37.592;2023-05-10T12:25:24;100338.53;;;17.73;27.00
34374;BME280;20637;55.770;37.592;2023-05-10T12:27:55;100338.94;;;17.70;27.14
34374;BME280;20637;55.770;37.592;2023-05-10T12:30:21;100330.78;;;17.77;27.15
34374;BME280;20637;55.770;37.592;2023-05-10T12:32:47;100341.34;;;17.80;27.27
34374;BME280;20637;55.770;37.592;2023-05-10T12:35:13;100336.31;;;17.83;27.54
34374;BME280;20637;55.770;37.592;2023-05-10T12:37:38;100332.28;;;17.79;27.21
34374;BME280;20637;55.770;37.592;2023-05-10T12:40:08;100329.72;;;17.71;27.47
34374;BME280;20637;55.770;37.592;2023-05-10T12:42:34;100321.97;;;17.75;27.65
34374;BME280;20637;55.770;37.592;2023-05-10T12:45:01;100330.19;;;17.81;27.47
34374;BME280;20637;55.770;37.592;2023-05-10T12:47:29;100330.78;;;17.77;27.65
34374;BME280;20637;55.770;37.592;2023-05-10T12:49:55;100339.78;;;17.71;27.31
34374;BME280;20637;55.770;37.592;2023-05-10T12:52:20;100331.53;;;17.64;27.33
34374;BME280;20637;55.770;37.592;2023-05-10T12:54:46;100333.53;;;17.55;27.41
34374;BME280;20637;55.770;37.592;2023-05-10T12:57:12;100330.09;;;17.47;27.60
34374;BME280;20637;55.770;37.592;2023-05-10T12:59:38;100326.28;;;17.41;27.49
34374;BME280;20637;55.770;37.592;2023-05-10T13:02:03;100335.03;;;17.37;27.88
34374;BME280;20637;55.770;37.592;2023-05-10T13:04:29;100332.03;;;17.32;27.61
34374;BME280;20637;55.770;37.592;2023-05-10T13:06:54;100321.78;;;17.34;28.09